Accueil
METAR-TAF:

METAR-TAF

Aéroports :

Tahlequah, Oklahoma, États-Unis

latitude: 35-55-44N, longitude: 095-00-16W, altitude: 266 m

Observation

Le bulletin a été fait il y a 18 minutes, à 02:55 UTC
Vent 12 kt de nord/nord-est avec des rafales jusqu'à 19 kt, variant entre nord et est/nord-est
Température 12°C
Humidité 94%
Pression 1014 hPa
Visibilité: 16.1 km
Ciel couvert à une hauteur de 4400 ft

METAR: KTQH 280255Z AUTO 03012G19KT 360V060 10SM OVC044 12/11 A2995 RMK AO2 P0020

Heure: 22:13 (03:13 UTC)


TAF: absent

Observations et prévisions météorologiques de plus de 4000 aéroports (messages METAR et TAF).

Les stations disponibles sont représentées par des disques jaunes et rouges sur la carte.

Passer la souris dessus pour voir le nom de la station.

Cliquer dessus pour voir les observations et prévisions météorologiques.

Pour changer de carte: cliquez sur les boutons verts avec une croix noire pour zoomer, sur le bouton vert avec un tiret pour effectuer un zoom arrière, ou sur les flèches vertes pour les cartes adjacentes.


METAR-TAF: